Terminal Aerodrome Forecast
Issued by NWS Cleveland, OH

Home | Current Version | Previous Version | Graphics & Text | Print | Product List | Glossary On
Versions: 1 2 3 4 5 6 7 8 9 10 11 12 13 14 15 16 17
000
FTUS41 KCLE 070900 AAA
TAFYNG
TAF AMD
KYNG 070900Z 0709/0806 26012KT P6SM SCT015 OVC025
      TEMPO 0709/0713 3SM BR OVC015
     FM071800 24008KT P6SM SCT025 OVC100=

USA.gov is the U.S. government's official web portal to all federal, state and local government web resources and services.